Time;durP1;ratioP1;P1;durP2;ratioP2;P2;SDS_P1;SDS_P2;PMS_P1;PMS_P2;Temp;Humidity;BMP_temperature;BMP_pressure;BME280_temperature;BME280_humidity;BME280_pressure;Samples;Min_cycle;Max_cycle;Signal;HPM_P1;HPM_P2
2023/10/02 00:02:05;;;;;;;5.00;2.40;;;;;;;17.47;100.00;100852.63;5036218;28;20048;-79
2023/10/02 00:04:49;;;;;;;4.57;2.28;;;;;;;17.46;100.00;100857.44;5043903;28;20040;-79
2023/10/02 00:07:42;;;;;;;6.40;2.35;;;;;;;17.41;100.00;100852.84;5041185;28;20040;-78
2023/10/02 00:10:29;;;;;;;5.90;2.50;;;;;;;17.40;100.00;100855.97;5044192;28;20171;-79
2023/10/02 00:13:14;;;;;;;4.93;2.47;;;;;;;17.40;100.00;100858.78;5039625;28;20111;-78
2023/10/02 00:15:59;;;;;;;6.55;2.53;;;;;;;17.33;100.00;100848.06;5029378;28;20047;-79
2023/10/02 00:18:43;;;;;;;5.13;2.28;;;;;;;17.32;100.00;100851.19;5029903;28;20106;-79
2023/10/02 00:21:27;;;;;;;6.05;2.33;;;;;;;17.24;100.00;100852.84;5015664;28;20048;-79
2023/10/02 00:24:13;;;;;;;4.55;2.00;;;;;;;17.20;100.00;100849.06;5043023;28;20040;-78
2023/10/02 00:26:57;;;;;;;5.40;2.08;;;;;;;17.13;100.00;100855.16;5024264;28;20040;-79
2023/10/02 00:29:57;;;;;;;4.47;2.03;;;;;;;17.11;100.00;100851.03;5032079;28;20040;-79
2023/10/02 00:32:45;;;;;;;3.40;2.10;;;;;;;17.07;100.00;100848.03;5044304;28;20405;-79
2023/10/02 00:35:30;;;;;;;5.88;2.05;;;;;;;17.04;100.00;100851.50;5027480;28;20048;-79
2023/10/02 00:38:14;;;;;;;4.72;1.92;;;;;;;17.05;100.00;100846.72;5043440;28;20067;-78
2023/10/02 00:40:59;;;;;;;3.88;1.98;;;;;;;17.02;100.00;100841.78;5037504;28;20044;-79
2023/10/02 00:43:45;;;;;;;5.88;2.15;;;;;;;17.00;100.00;100847.72;5029461;28;20147;-79
2023/10/02 00:46:34;;;;;;;4.85;2.05;;;;;;;16.96;100.00;100847.53;5057175;28;20124;-78
2023/10/02 00:49:28;;;;;;;4.40;2.30;;;;;;;16.96;100.00;100846.72;5036541;28;20543;-79
2023/10/02 00:52:12;;;;;;;7.88;1.95;;;;;;;16.90;100.00;100840.44;5031717;28;20404;-78
2023/10/02 00:54:56;;;;;;;3.92;1.98;;;;;;;16.85;100.00;100842.59;5042778;28;20043;-78
2023/10/02 00:57:41;;;;;;;3.70;2.17;;;;;;;16.79;100.00;100841.09;5028427;28;20360;-78
2023/10/02 01:00:35;;;;;;;5.88;2.10;;;;;;;16.78;100.00;100840.28;5027948;28;20074;-78
2023/10/02 01:03:22;;;;;;;5.75;2.05;;;;;;;16.73;100.00;100840.41;5019779;28;20450;-78
2023/10/02 01:06:08;;;;;;;5.35;1.88;;;;;;;16.72;100.00;100839.59;5057860;28;20126;-79
2023/10/02 01:08:52;;;;;;;3.45;1.80;;;;;;;16.67;100.00;100841.72;5037977;28;20067;-79
2023/10/02 01:11:36;;;;;;;4.10;1.60;;;;;;;16.61;100.00;100845.84;5041483;28;20044;-79
2023/10/02 01:14:40;;;;;;;3.30;1.63;;;;;;;16.61;100.00;100841.06;5006862;28;20041;-79
2023/10/02 01:17:26;;;;;;;2.33;1.50;;;;;;;16.62;100.00;100845.50;5014390;28;20409;-78
2023/10/02 01:20:20;;;;;;;3.50;1.70;;;;;;;16.58;100.00;100843.69;5008981;28;20044;-79
2023/10/02 01:23:16;;;;;;;7.32;1.92;;;;;;;16.48;100.00;100840.03;4997298;28;20394;-78
2023/10/02 01:26:01;;;;;;;4.57;1.73;;;;;;;16.50;100.00;100837.72;5011423;28;20036;-79
2023/10/02 01:28:51;;;;;;;4.93;1.95;;;;;;;16.46;100.00;100836.72;5005765;28;20180;-78
2023/10/02 01:31:35;;;;;;;4.10;1.80;;;;;;;16.45;100.00;100839.84;5035979;28;20381;-78
2023/10/02 01:34:39;;;;;;;4.70;1.83;;;;;;;16.44;100.00;100832.59;5020476;28;20149;-78
2023/10/02 01:37:33;;;;;;;4.45;1.77;;;;;;;16.39;100.00;100822.34;5018187;28;20068;-79
2023/10/02 01:40:33;;;;;;;3.50;1.58;;;;;;;16.36;100.00;100822.19;5009838;28;20104;-78
2023/10/02 01:43:20;;;;;;;4.63;2.00;;;;;;;16.29;100.00;100815.06;5023624;28;20039;-79
2023/10/02 01:46:05;;;;;;;2.78;1.70;;;;;;;16.31;100.00;100809.97;5001320;28;20144;-79
2023/10/02 01:48:51;;;;;;;5.03;1.73;;;;;;;16.28;100.00;100810.63;5010886;28;20120;-79
2023/10/02 01:51:37;;;;;;;3.38;1.60;;;;;;;16.23;100.00;100799.56;5032593;28;20111;-79
2023/10/02 01:54:22;;;;;;;2.80;1.52;;;;;;;16.22;100.00;100800.72;5019814;28;20176;-79
2023/10/02 01:57:07;;;;;;;5.38;1.60;;;;;;;16.22;100.00;100799.91;4994358;28;20043;-79
2023/10/02 01:59:51;;;;;;;3.85;1.50;;;;;;;16.16;100.00;100795.56;5021723;28;20564;-79
2023/10/02 02:02:35;;;;;;;4.38;1.65;;;;;;;16.16;100.00;100799.22;5021689;28;20068;-78
2023/10/02 02:05:19;;;;;;;4.22;1.70;;;;;;;16.16;100.00;100793.63;5007335;28;20077;-78
2023/10/02 02:08:21;;;;;;;5.75;2.10;;;;;;;16.12;100.00;100791.78;5008730;28;20044;-78
2023/10/02 02:11:16;;;;;;;3.25;2.00;;;;;;;16.04;100.00;100793.41;5035721;28;20044;-77
2023/10/02 02:14:03;;;;;;;5.95;2.10;;;;;;;16.04;100.00;100790.59;5005730;28;20080;-79
2023/10/02 02:16:47;;;;;;;4.03;1.92;;;;;;;16.00;100.00;100784.81;5008468;28;20253;-78
2023/10/02 02:19:31;;;;;;;3.15;1.70;;;;;;;15.98;100.00;100783.50;4995634;28;20111;-78
2023/10/02 02:22:26;;;;;;;4.22;1.92;;;;;;;15.95;100.00;100776.56;5008002;28;20083;-78
2023/10/02 02:25:11;;;;;;;7.15;2.10;;;;;;;15.92;100.00;100776.38;5008559;28;20051;-78
2023/10/02 02:27:55;;;;;;;3.85;2.10;;;;;;;15.91;100.00;100774.72;5007451;28;20345;-79
2023/10/02 02:30:43;;;;;;;4.00;1.67;;;;;;;15.88;100.00;100765.00;5006803;28;20044;-78
2023/10/02 02:33:38;;;;;;;3.97;1.80;;;;;;;15.86;100.00;100756.94;4989930;28;20411;-78
2023/10/02 02:36:23;;;;;;;2.88;1.73;;;;;;;15.84;100.00;100759.22;5022244;28;20048;-78
2023/10/02 02:39:17;;;;;;;3.20;2.00;;;;;;;15.83;100.00;100756.75;4995935;28;20115;-79
2023/10/02 02:45:24;;;;;;;3.55;1.77;;;;;;;15.80;100.00;100751.81;5022894;28;20470;-78
2023/10/02 02:48:10;;;;;;;4.20;1.98;;;;;;;15.76;100.00;100746.00;5023925;28;20569;-79
2023/10/02 02:50:54;;;;;;;4.15;1.85;;;;;;;15.75;100.00;100737.94;5008720;28;20052;-79
2023/10/02 02:53:40;;;;;;;3.58;1.77;;;;;;;15.75;100.00;100737.94;5009573;28;20043;-79
2023/10/02 02:56:24;;;;;;;3.08;1.60;;;;;;;15.72;100.00;100735.78;5007795;28;20102;-79
2023/10/02 02:59:08;;;;;;;4.18;1.80;;;;;;;15.71;100.00;100737.78;5021551;28;20099;-79
2023/10/02 03:02:08;;;;;;;2.88;1.45;;;;;;;15.72;100.00;100727.41;5010720;28;20541;-79
2023/10/02 03:04:56;;;;;;;4.38;1.80;;;;;;;15.71;100.00;100729.38;5003465;28;20103;-79
2023/10/02 03:07:42;;;;;;;3.80;1.63;;;;;;;15.71;100.00;100728.53;5009844;28;20345;-79
2023/10/02 03:10:26;;;;;;;4.72;1.40;;;;;;;15.66;100.00;100723.88;5010372;28;20107;-78
2023/10/02 03:13:16;;;;;;;1.70;1.13;;;;;;;15.62;100.00;100723.69;5022653;28;20125;-79
2023/10/02 03:16:12;;;;;;;3.65;1.42;;;;;;;15.65;100.00;100716.59;5042849;28;20095;-78
2023/10/02 03:18:56;;;;;;;4.72;1.95;;;;;;;15.63;100.00;100707.72;5046285;28;20103;-78
2023/10/02 03:21:42;;;;;;;3.15;1.30;;;;;;;15.61;100.00;100710.03;5030550;28;20035;-79
2023/10/02 03:24:26;;;;;;;3.45;1.40;;;;;;;15.53;100.00;100713.59;5046028;28;20036;-78
2023/10/02 03:27:10;;;;;;;2.45;1.10;;;;;;;15.53;100.00;100708.81;5040859;28;20052;-78
2023/10/02 03:29:54;;;;;;;5.13;1.60;;;;;;;15.54;100.00;100704.88;5058541;28;20102;-79
2023/10/02 03:32:45;;;;;;;3.35;1.40;;;;;;;15.49;100.00;100709.78;5035405;28;20036;-78
2023/10/02 03:35:35;;;;;;;3.08;1.10;;;;;;;15.45;100.00;100706.81;5038508;28;20047;-79
2023/10/02 03:38:19;;;;;;;5.18;1.20;;;;;;;15.44;100.00;100705.19;5045982;28;20119;-78
2023/10/02 03:41:05;;;;;;;3.88;1.20;;;;;;;15.39;100.00;100694.94;5019239;28;20052;-78
2023/10/02 03:43:49;;;;;;;2.88;1.30;;;;;;;15.36;100.00;100698.38;5031309;28;20111;-79
2023/10/02 03:46:37;;;;;;;3.10;1.30;;;;;;;15.38;100.00;100693.28;5040903;28;20114;-79
2023/10/02 03:49:23;;;;;;;4.88;1.77;;;;;;;15.38;100.00;100707.28;5038657;28;20093;-79
2023/10/02 03:52:08;;;;;;;4.28;1.48;;;;;;;15.33;100.00;100701.81;5020078;28;20072;-79
2023/10/02 03:54:54;;;;;;;6.15;1.65;;;;;;;15.30;100.00;100685.69;5029797;28;20300;-79
2023/10/02 03:57:49;;;;;;;3.33;1.40;;;;;;;15.24;100.00;100689.78;5042488;28;20141;-79
2023/10/02 04:00:50;;;;;;;2.42;1.25;;;;;;;15.27;100.00;100689.13;5044181;28;20040;-78
2023/10/02 04:03:52;;;;;;;4.72;1.33;;;;;;;15.23;100.00;100687.28;5047995;28;20047;-79
2023/10/02 04:06:36;;;;;;;4.50;1.48;;;;;;;15.22;100.00;100692.06;5045775;28;20036;-78
2023/10/02 04:09:23;;;;;;;4.35;1.67;;;;;;;15.18;100.00;100685.44;5041952;28;20124;-79
2023/10/02 04:12:12;;;;;;;4.72;1.50;;;;;;;15.16;100.00;100687.75;5034544;28;20084;-79
2023/10/02 04:14:57;;;;;;;3.95;1.45;;;;;;;15.12;100.00;100678.34;5018564;28;20068;-78
2023/10/02 04:17:46;;;;;;;2.28;1.30;;;;;;;15.13;100.00;100691.19;5031504;28;20090;-78
2023/10/02 04:20:32;;;;;;;4.53;1.23;;;;;;;15.13;100.00;100685.59;5030932;28;20501;-79
2023/10/02 04:23:21;;;;;;;2.90;1.77;;;;;;;15.10;100.00;100683.41;5033325;28;20072;-78
2023/10/02 04:26:05;;;;;;;6.07;1.45;;;;;;;15.08;100.00;100691.31;5044415;28;20036;-79
2023/10/02 04:28:55;;;;;;;3.75;1.65;;;;;;;15.05;100.00;100672.38;5043666;28;20627;-79
2023/10/02 04:31:44;;;;;;;3.72;1.77;;;;;;;15.04;100.00;100676.31;5043439;28;20040;-78
2023/10/02 04:34:31;;;;;;;3.33;1.63;;;;;;;15.02;100.00;100664.63;5034080;28;20048;-78
2023/10/02 04:37:22;;;;;;;3.63;1.50;;;;;;;15.01;100.00;100663.78;5026198;28;20044;-79
2023/10/02 04:40:14;;;;;;;2.75;1.48;;;;;;;14.99;100.00;100668.91;5027771;28;20060;-78
2023/10/02 04:43:19;;;;;;;4.07;1.80;;;;;;;14.97;100.00;100669.22;5058524;28;20052;-79
2023/10/02 04:46:08;;;;;;;4.18;1.45;;;;;;;14.95;100.00;100671.50;5034388;28;20111;-79
2023/10/02 04:48:59;;;;;;;5.95;2.00;;;;;;;14.94;100.00;100669.84;5007927;28;20049;-79
2023/10/02 04:51:46;;;;;;;4.20;1.75;;;;;;;14.93;100.00;100673.81;5056323;28;20068;-79
2023/10/02 04:54:30;;;;;;;5.47;2.03;;;;;;;14.95;100.00;100681.84;5029406;28;20075;-79
2023/10/02 04:57:15;;;;;;;6.00;1.90;;;;;;;14.91;100.00;100678.88;5028920;28;20068;-79
2023/10/02 05:00:00;;;;;;;3.42;1.75;;;;;;;14.90;100.00;100668.81;5044565;28;20240;-79
2023/10/02 05:02:47;;;;;;;5.50;2.33;;;;;;;14.91;100.00;100676.09;5058048;28;20044;-78
2023/10/02 05:05:36;;;;;;;3.42;1.70;;;;;;;14.92;100.00;100665.72;5057164;28;20174;-78
2023/10/02 05:08:21;;;;;;;4.88;1.80;;;;;;;14.89;100.00;100667.19;5042697;28;20048;-78
2023/10/02 05:11:06;;;;;;;4.88;2.10;;;;;;;14.88;100.00;100667.53;5001101;28;20063;-78
2023/10/02 05:16:38;;;;;;;6.10;1.95;;;;;;;14.85;100.00;100671.78;5013146;28;20048;-79
2023/10/02 05:19:56;;;;;;;4.20;2.25;;;;;;;14.86;100.00;100667.81;5041849;28;20595;-79
2023/10/02 05:22:28;;;;;;;5.05;2.17;;;;;;;14.87;100.00;100677.84;5056834;28;20052;-79
2023/10/02 05:25:18;;;;;;;2.95;2.00;;;;;;;14.84;100.00;100681.28;5028380;28;20036;-79
2023/10/02 05:28:02;;;;;;;4.15;1.83;;;;;;;14.83;100.00;100676.03;5015973;28;20555;-79
2023/10/02 05:30:46;;;;;;;4.70;2.30;;;;;;;14.81;100.00;100679.13;5042100;28;20129;-79
2023/10/02 05:33:37;;;;;;;6.60;2.53;;;;;;;14.82;100.00;100680.81;5018102;28;20102;-79
2023/10/02 05:36:22;;;;;;;7.78;2.40;;;;;;;14.80;100.00;100682.25;5054939;28;20043;-79
2023/10/02 05:39:28;;;;;;;6.35;2.58;;;;;;;14.80;100.00;100677.50;5008607;28;20099;-79
2023/10/02 05:42:15;;;;;;;6.28;2.60;;;;;;;14.78;100.00;100674.19;5043965;28;20044;-79
2023/10/02 05:44:59;;;;;;;8.73;2.30;;;;;;;14.76;100.00;100684.84;5042126;28;20115;-79
2023/10/02 05:47:48;;;;;;;6.95;2.40;;;;;;;14.75;100.00;100675.63;5042003;28;20100;-79
2023/10/02 05:50:40;;;;;;;4.18;2.28;;;;;;;14.78;100.00;100678.94;5046153;28;20056;-78
2023/10/02 05:53:25;;;;;;;4.85;1.92;;;;;;;14.77;100.00;100674.50;5037696;28;20044;-79
2023/10/02 05:58:55;;;;;;;6.07;2.80;;;;;;;14.74;100.00;100679.59;5056653;28;20044;-79
2023/10/02 06:01:42;;;;;;;6.63;2.97;;;;;;;14.74;100.00;100687.16;5045006;28;20044;-78
2023/10/02 06:04:32;;;;;;;5.97;3.05;;;;;;;14.72;100.00;100675.47;5028621;28;20040;-78
2023/10/02 06:10:26;;;;;;;5.57;2.88;;;;;;;14.72;100.00;100669.88;5043874;28;20035;-79
2023/10/02 06:13:11;;;;;;;7.75;3.25;;;;;;;14.69;100.00;100676.91;5020226;28;20183;-78
2023/10/02 06:15:58;;;;;;;7.18;2.90;;;;;;;14.67;100.00;100670.00;5036221;28;20060;-79
2023/10/02 06:18:42;;;;;;;6.50;2.95;;;;;;;14.68;100.00;100677.22;5022402;28;20103;-79
2023/10/02 06:21:28;;;;;;;6.88;2.80;;;;;;;14.67;100.00;100672.78;5010936;28;20115;-79
2023/10/02 06:24:16;;;;;;;5.25;3.25;;;;;;;14.66;100.00;100669.16;5021923;28;20563;-79
2023/10/02 06:29:52;;;;;;;7.00;2.90;;;;;;;14.69;100.00;100678.91;5021127;28;20541;-79
2023/10/02 06:32:52;;;;;;;6.22;2.95;;;;;;;14.73;100.00;100680.72;5008930;28;20040;-79
2023/10/02 06:35:44;;;;;;;7.00;2.63;;;;;;;14.77;100.00;100668.94;5037652;28;20048;-79
2023/10/02 06:38:31;;;;;;;6.13;3.20;;;;;;;14.79;100.00;100677.78;5022628;28;20048;-79
2023/10/02 06:41:17;;;;;;;5.57;3.00;;;;;;;14.82;100.00;100671.56;5015947;28;20100;-79
2023/10/02 06:44:14;;;;;;;8.23;3.95;;;;;;;14.91;100.00;100675.25;5011082;28;20113;-79
2023/10/02 06:46:58;;;;;;;7.97;3.35;;;;;;;14.98;100.00;100678.41;5038974;28;20079;-79
2023/10/02 06:49:45;;;;;;;6.90;2.92;;;;;;;15.06;100.00;100677.66;5010190;28;20044;-78
2023/10/02 06:52:32;;;;;;;8.73;3.70;;;;;;;15.13;100.00;100672.44;5013556;28;20091;-78
2023/10/02 06:55:17;;;;;;;8.52;3.38;;;;;;;15.22;100.00;100680.88;4999498;28;20068;-79
2023/10/02 06:58:02;;;;;;;9.45;3.13;;;;;;;15.31;100.00;100676.13;5025050;28;20101;-79
2023/10/02 07:00:55;;;;;;;9.05;3.83;;;;;;;15.42;100.00;100674.69;5004707;28;20503;-79
2023/10/02 07:03:39;;;;;;;;;;;;;;;15.52;100.00;100683.97;5004334;28;20044;-79
2023/10/02 07:06:28;;;;;;;6.68;3.20;;;;;;;15.62;100.00;100678.06;5032239;28;19959;-79
2023/10/02 07:09:13;;;;;;;8.40;3.53;;;;;;;15.70;100.00;100679.28;5011741;28;20052;-79
2023/10/02 07:12:08;;;;;;;7.20;3.38;;;;;;;15.78;100.00;100684.09;5031995;28;20456;-79
2023/10/02 07:15:10;;;;;;;6.88;3.13;;;;;;;15.86;100.00;100681.31;5021980;28;20477;-78
2023/10/02 07:18:00;;;;;;;12.05;5.63;;;;;;;15.93;100.00;100683.63;5047350;28;20047;-79
2023/10/02 07:20:49;;;;;;;11.30;6.53;;;;;;;16.00;100.00;100688.75;5058545;28;20102;-79
2023/10/02 07:23:37;;;;;;;12.40;6.68;;;;;;;16.08;100.00;100679.56;5041130;28;20106;-79
2023/10/02 07:26:45;;;;;;;14.27;7.22;;;;;;;16.15;100.00;100687.47;5021142;28;20036;-79
2023/10/02 07:29:37;;;;;;;11.88;6.75;;;;;;;16.24;100.00;100675.13;5034876;28;20193;-79
2023/10/02 07:32:22;;;;;;;12.05;6.68;;;;;;;16.34;100.00;100675.94;5043724;28;20122;-79
2023/10/02 07:35:10;;;;;;;14.60;6.80;;;;;;;16.43;100.00;100668.34;5041326;28;20040;-79
2023/10/02 07:38:00;;;;;;;11.30;6.53;;;;;;;16.54;100.00;100669.66;5015946;28;20036;-79
2023/10/02 07:40:48;;;;;;;12.75;6.75;;;;;;;16.65;100.00;100664.56;5029597;28;20068;-79
2023/10/02 07:43:32;;;;;;;14.85;7.85;;;;;;;16.74;100.00;100662.56;5040986;28;20121;-79
2023/10/02 07:46:21;;;;;;;12.50;7.20;;;;;;;16.85;100.00;100660.25;5036932;28;20101;-79
2023/10/02 07:49:05;;;;;;;15.82;9.18;;;;;;;16.95;100.00;100660.75;5058697;28;20040;-79
2023/10/02 07:51:55;;;;;;;15.18;8.10;;;;;;;17.05;100.00;100655.94;5044022;28;20047;-79
2023/10/02 07:54:48;;;;;;;14.98;8.90;;;;;;;17.15;100.00;100656.41;5044805;28;20041;-78
2023/10/02 07:57:32;;;;;;;16.90;8.93;;;;;;;17.27;100.00;100663.28;5044052;28;20035;-79
2023/10/02 08:03:32;;;;;;;17.13;11.02;;;;;;;17.49;100.00;100657.41;5046129;28;20040;-79
2023/10/02 08:09:39;;;;;;;17.65;10.07;;;;;;;17.71;100.00;100667.56;5035004;28;20071;-78
2023/10/02 08:12:29;;;;;;;;;;;;;;;17.84;100.00;100674.13;5028101;28;20076;-79
2023/10/02 08:15:32;;;;;;;17.63;10.27;;;;;;;17.95;100.00;100671.75;5057382;28;19924;-79
2023/10/02 08:18:19;;;;;;;17.92;10.15;;;;;;;18.06;100.00;100675.81;5035237;28;20048;-79
2023/10/02 08:21:04;;;;;;;19.55;10.10;;;;;;;18.16;100.00;100671.78;5029461;28;20043;-79
2023/10/02 08:23:52;;;;;;;18.45;9.60;;;;;;;18.25;100.00;100670.56;5043271;28;20044;-79
2023/10/02 08:26:40;;;;;;;13.10;7.97;;;;;;;18.35;100.00;100674.94;5043315;28;20044;-79
2023/10/02 08:29:28;;;;;;;17.23;8.75;;;;;;;18.47;100.00;100671.38;5015990;28;20036;-79
2023/10/02 08:32:12;;;;;;;15.70;7.85;;;;;;;18.58;100.00;100660.53;5056854;28;20035;-79
2023/10/02 08:34:57;;;;;;;13.43;7.47;;;;;;;18.69;100.00;100667.38;5057077;28;20578;-79
2023/10/02 08:37:41;;;;;;;15.00;7.15;;;;;;;18.83;100.00;100653.84;5057468;28;20444;-79
2023/10/02 08:40:26;;;;;;;14.20;7.00;;;;;;;19.00;100.00;100652.03;5042585;28;20048;-79
2023/10/02 08:43:10;;;;;;;14.82;7.68;;;;;;;19.15;100.00;100657.00;5057830;28;20044;-79
2023/10/02 08:45:55;;;;;;;17.00;7.75;;;;;;;19.32;100.00;100651.16;5041417;28;20054;-79
2023/10/02 08:48:38;;;;;;;15.52;6.85;;;;;;;19.49;100.00;100638.03;5029190;28;20141;-79
2023/10/02 08:51:29;;;;;;;13.85;6.65;;;;;;;19.67;100.00;100645.13;5026607;28;20115;-79
2023/10/02 08:54:15;;;;;;;16.15;7.03;;;;;;;19.87;100.00;100649.00;5030252;28;20060;-79
2023/10/02 08:57:08;;;;;;;15.15;7.20;;;;;;;20.05;100.00;100638.25;5014598;28;20044;-79
2023/10/02 09:00:00;;;;;;;;;;;;;;;20.21;100.00;100644.81;5023811;28;20053;-79
2023/10/02 09:02:54;;;;;;;13.70;6.35;;;;;;;20.38;100.00;100634.44;5040936;28;20332;-79
2023/10/02 09:05:49;;;;;;;14.63;6.35;;;;;;;20.50;100.00;100638.03;5042591;28;20052;-78
2023/10/02 09:09:12;;;;;;;12.85;6.13;;;;;;;20.63;100.00;100626.72;5037063;28;20048;-78
2023/10/02 09:11:44;;;;;;;12.55;5.72;;;;;;;20.82;100.00;100626.06;5021860;28;20056;-78
2023/10/02 09:17:25;;;;;;;13.50;6.60;;;;;;;21.17;100.00;100614.88;5028518;28;20044;-78
2023/10/02 09:20:09;;;;;;;14.55;7.05;;;;;;;21.33;100.00;100606.41;5032091;28;20044;-78
2023/10/02 09:23:08;;;;;;;13.02;6.47;;;;;;;21.49;100.00;100598.78;5019277;28;20052;-77
2023/10/02 09:29:06;;;;;;;13.60;5.85;;;;;;;21.82;100.00;100583.41;5031402;28;20036;-77
2023/10/02 09:31:50;;;;;;;20.33;7.03;;;;;;;21.96;100.00;100588.59;5023617;28;20048;-77
2023/10/02 09:34:34;;;;;;;13.52;6.90;;;;;;;22.11;100.00;100589.72;5032580;28;20056;-78
2023/10/02 09:37:26;;;;;;;13.18;6.38;;;;;;;22.26;100.00;100594.53;5014085;28;20044;-78
2023/10/02 09:40:16;;;;;;;14.15;7.20;;;;;;;22.42;100.00;100583.94;5013456;28;20572;-77
2023/10/02 09:43:05;;;;;;;15.40;6.93;;;;;;;22.59;100.00;100582.66;5014877;28;20041;-77
2023/10/02 09:45:50;;;;;;;15.40;6.75;;;;;;;22.74;100.00;100573.25;5032007;28;20113;-77
2023/10/02 09:48:53;;;;;;;15.48;7.35;;;;;;;22.89;100.00;100568.66;5027821;28;20118;-77
2023/10/02 09:52:15;;;;;;;14.38;6.82;;;;;;;23.02;100.00;100569.34;5032127;28;20044;-77
2023/10/02 09:55:05;;;;;;;12.65;6.30;;;;;;;23.19;100.00;100576.50;5034670;28;20041;-77
2023/10/02 09:57:50;;;;;;;12.88;6.30;;;;;;;23.31;100.00;100579.13;5034841;28;20088;-77
2023/10/02 10:00:36;;;;;;;13.07;6.13;;;;;;;23.44;100.00;100571.25;5055416;28;20044;-77
2023/10/02 10:03:22;;;;;;;12.80;6.50;;;;;;;23.57;100.00;100563.38;5003325;28;20496;-77
2023/10/02 10:06:06;;;;;;;13.90;6.47;;;;;;;23.69;100.00;100565.97;5056718;28;20028;-77
2023/10/02 10:12:27;;;;;;;12.73;5.88;;;;;;;23.98;100.00;100557.91;5055554;28;20107;-77
2023/10/02 10:15:23;;;;;;;14.13;6.50;;;;;;;24.11;100.00;100556.47;5027106;28;20051;-77
2023/10/02 10:18:12;;;;;;;13.15;6.45;;;;;;;24.25;100.00;100547.31;5039679;28;20067;-77
2023/10/02 10:21:35;;;;;;;13.15;5.85;;;;;;;24.39;100.00;100547.50;5041302;28;20191;-77
2023/10/02 10:28:09;;;;;;;12.27;6.25;;;;;;;24.72;100.00;100548.69;5043422;28;20131;-77
2023/10/02 10:30:56;;;;;;;12.15;5.30;;;;;;;24.81;100.00;100545.53;5050184;28;20095;-77
2023/10/02 10:33:40;;;;;;;12.20;6.28;;;;;;;24.91;100.00;100531.44;5038576;28;20524;-77
2023/10/02 10:36:36;;;;;;;10.20;5.82;;;;;;;25.00;100.00;100530.31;5053991;28;20385;-77
2023/10/02 10:39:51;;;;;;;11.75;6.35;;;;;;;25.18;100.00;100532.13;5023102;28;20140;-77
2023/10/02 10:42:56;;;;;;;10.60;5.65;;;;;;;25.29;100.00;100532.19;5044729;28;20075;-77
2023/10/02 10:45:41;;;;;;;11.07;5.82;;;;;;;25.41;100.00;100525.41;5034843;28;20124;-77
2023/10/02 10:48:26;;;;;;;12.15;5.57;;;;;;;25.55;100.00;100508.44;5038910;28;20132;-77
2023/10/02 10:51:20;;;;;;;10.15;5.57;;;;;;;25.67;100.00;100518.66;5040709;28;20051;-77
2023/10/02 10:54:25;;;;;;;12.20;5.72;;;;;;;25.74;100.00;100510.19;5042568;28;20516;-77
2023/10/02 10:57:19;;;;;;;12.20;5.70;;;;;;;25.82;100.00;100506.13;5038950;28;20500;-77
2023/10/02 11:03:13;;;;;;;11.32;5.47;;;;;;;25.97;100.00;100494.88;5041278;28;20092;-77
2023/10/02 11:06:02;;;;;;;11.70;5.72;;;;;;;26.08;100.00;100488.00;5040691;28;20040;-77
2023/10/02 11:09:11;;;;;;;11.70;5.93;;;;;;;26.22;100.00;100492.13;5012450;28;20516;-77
2023/10/02 11:11:55;;;;;;;11.25;5.88;;;;;;;26.34;100.00;100488.91;5038490;28;20115;-77
2023/10/02 11:14:44;;;;;;;12.18;5.97;;;;;;;26.51;100.00;100478.78;5026363;28;20134;-77
2023/10/02 11:17:32;;;;;;;13.77;6.25;;;;;;;26.63;100.00;100486.13;5050039;28;20135;-77
2023/10/02 11:20:31;;;;;;;10.68;5.40;;;;;;;26.75;100.00;100480.06;5014888;28;20036;-77
2023/10/02 11:23:23;;;;;;;11.30;5.70;;;;;;;26.92;100.00;100478.44;5058141;28;20043;-77
2023/10/02 11:26:14;;;;;;;11.38;5.72;;;;;;;27.08;100.00;100476.00;5035626;28;20191;-77
2023/10/02 11:28:58;;;;;;;11.75;6.10;;;;;;;27.14;100.00;100474.34;5053529;28;20516;-77
2023/10/02 11:31:45;;;;;;;10.27;5.45;;;;;;;27.21;100.00;100473.56;5042747;28;20040;-77
2023/10/02 11:34:29;;;;;;;10.57;6.13;;;;;;;27.26;100.00;100476.00;5043114;28;20410;-77
2023/10/02 11:37:13;;;;;;;9.35;5.53;;;;;;;27.32;100.00;100476.41;5028950;28;20191;-77
2023/10/02 11:39:58;;;;;;;12.68;5.68;;;;;;;27.35;100.00;100476.38;5021231;28;20444;-77
2023/10/02 11:42:42;;;;;;;10.35;5.35;;;;;;;27.42;100.00;100478.44;5013593;28;20115;-77
2023/10/02 11:45:32;;;;;;;11.73;5.70;;;;;;;27.45;100.00;100466.19;5037545;28;20377;-77
2023/10/02 11:48:16;;;;;;;11.23;5.70;;;;;;;27.53;100.00;100462.09;5024791;28;20044;-77
2023/10/02 11:51:00;;;;;;;11.07;5.38;;;;;;;27.60;100.00;100472.66;5028437;28;20103;-77
2023/10/02 11:53:44;;;;;;;12.10;6.13;;;;;;;27.66;100.00;100455.94;5044113;28;20044;-77
2023/10/02 11:56:28;;;;;;;9.65;5.47;;;;;;;27.74;100.00;100457.53;5042202;28;20604;-77
2023/10/02 11:59:15;;;;;;;10.27;4.75;;;;;;;27.84;100.00;100453.88;5028985;28;20115;-77
2023/10/02 12:01:59;;;;;;;9.50;5.65;;;;;;;27.98;100.00;100441.59;5044662;28;20076;-77
2023/10/02 12:04:44;;;;;;;10.43;5.10;;;;;;;28.06;100.00;100446.03;5030634;28;20385;-77
2023/10/02 12:07:28;;;;;;;9.40;5.50;;;;;;;28.18;100.00;100437.00;5023352;28;20048;-77
2023/10/02 12:10:15;;;;;;;9.30;5.70;;;;;;;28.32;100.00;100423.84;5043489;28;20048;-77
2023/10/02 12:13:02;;;;;;;10.68;5.35;;;;;;;28.41;100.00;100418.47;5043082;28;20056;-77
2023/10/02 12:15:46;;;;;;;9.95;5.20;;;;;;;28.46;100.00;100407.47;5041414;28;20136;-77
2023/10/02 12:18:33;;;;;;;8.82;4.97;;;;;;;28.56;100.00;100414.34;5029224;28;20128;-76
2023/10/02 12:21:19;;;;;;;10.13;4.80;;;;;;;28.63;100.00;100411.41;5030257;28;20036;-76
2023/10/02 12:24:05;;;;;;;12.95;5.05;;;;;;;28.77;100.00;100389.66;5039201;28;20047;-76
2023/10/02 12:26:49;;;;;;;11.80;5.13;;;;;;;28.87;100.00;100405.91;5029028;28;20064;-76
2023/10/02 12:29:34;;;;;;;8.63;4.80;;;;;;;28.94;100.00;100414.41;5054697;28;20052;-76
2023/10/02 12:32:19;;;;;;;8.88;5.07;;;;;;;29.01;100.00;100408.63;5036850;28;20437;-76
2023/10/02 12:35:05;;;;;;;9.20;4.47;;;;;;;29.04;100.00;100399.25;5042899;28;20424;-76
2023/10/02 12:37:52;;;;;;;9.93;4.88;;;;;;;29.13;100.00;100390.16;5057423;28;20075;-76
2023/10/02 12:40:36;;;;;;;9.40;4.25;;;;;;;29.16;100.00;100390.13;5053779;28;20070;-76
2023/10/02 12:43:20;;;;;;;6.90;3.80;;;;;;;29.21;100.00;100379.47;5054286;28;20060;-75
2023/10/02 12:46:04;;;;;;;6.72;3.78;;;;;;;29.24;100.00;100375.75;5042842;28;20105;-76
2023/10/02 12:48:49;;;;;;;5.30;3.42;;;;;;;29.31;100.00;100372.81;5022723;28;20175;-76
2023/10/02 12:51:33;;;;;;;6.90;2.80;;;;;;;29.34;100.00;100378.50;5056882;28;20404;-76
2023/10/02 12:54:19;;;;;;;7.50;3.65;;;;;;;29.37;100.00;100377.66;5056386;28;20040;-76
2023/10/02 12:57:04;;;;;;;8.23;3.55;;;;;;;29.44;100.00;100370.22;5037036;28;20043;-76
2023/10/02 12:59:49;;;;;;;5.95;3.30;;;;;;;29.47;100.00;100355.84;5022267;28;20044;-76
2023/10/02 13:02:33;;;;;;;7.95;3.97;;;;;;;29.52;100.00;100357.44;5042714;28;20083;-75
2023/10/02 13:05:19;;;;;;;7.82;3.78;;;;;;;29.52;100.00;100343.94;5028186;28;20040;-75
2023/10/02 13:08:03;;;;;;;8.10;3.42;;;;;;;29.54;100.00;100335.75;5025525;28;20098;-76
2023/10/02 13:10:48;;;;;;;6.80;3.20;;;;;;;29.58;100.00;100344.28;5030055;28;20103;-74
2023/10/02 13:13:33;;;;;;;6.25;3.25;;;;;;;29.61;100.00;100332.81;5042000;28;20151;-75
2023/10/02 13:16:18;;;;;;;6.45;3.03;;;;;;;29.67;98.24;100315.16;5028837;28;20052;-75
2023/10/02 13:19:06;;;;;;;5.70;3.28;;;;;;;29.72;100.00;100323.28;5038715;28;20040;-75
2023/10/02 13:21:52;;;;;;;6.40;3.53;;;;;;;29.77;96.98;100314.22;5029166;28;20040;-75
2023/10/02 13:24:36;;;;;;;9.88;3.42;;;;;;;29.74;96.95;100303.63;5020539;28;20119;-75
2023/10/02 13:27:21;;;;;;;7.72;3.03;;;;;;;29.74;97.80;100303.63;5042673;28;20071;-75
2023/10/02 13:30:11;;;;;;;5.10;2.75;;;;;;;29.77;96.12;100297.03;5028738;28;20075;-76